sensor_id;sensor_type;location;lat;lon;timestamp;temperature;humidity
41928;DHT22;27616;51.420;6.788;2023-07-28T00:02:09;17.60;99.90
41928;DHT22;27616;51.420;6.788;2023-07-28T00:04:35;17.70;99.90
41928;DHT22;27616;51.420;6.788;2023-07-28T00:07:02;17.60;99.90
41928;DHT22;27616;51.420;6.788;2023-07-28T00:09:28;17.60;99.90
41928;DHT22;27616;51.420;6.788;2023-07-28T00:11:54;17.70;99.90
41928;DHT22;27616;51.420;6.788;2023-07-28T00:14:20;17.60;99.90
41928;DHT22;27616;51.420;6.788;2023-07-28T00:16:46;17.60;99.90
41928;DHT22;27616;51.420;6.788;2023-07-28T00:19:11;17.60;99.90
41928;DHT22;27616;51.420;6.788;2023-07-28T00:21:37;17.60;99.90
41928;DHT22;27616;51.420;6.788;2023-07-28T00:24:03;17.60;99.90
41928;DHT22;27616;51.420;6.788;2023-07-28T00:26:29;17.60;99.90
41928;DHT22;27616;51.420;6.788;2023-07-28T00:28:54;17.50;99.90
41928;DHT22;27616;51.420;6.788;2023-07-28T00:31:20;17.50;99.90
41928;DHT22;27616;51.420;6.788;2023-07-28T00:33:46;17.50;99.90
41928;DHT22;27616;51.420;6.788;2023-07-28T00:36:11;17.50;99.90
41928;DHT22;27616;51.420;6.788;2023-07-28T00:38:37;17.40;99.90
41928;DHT22;27616;51.420;6.788;2023-07-28T00:41:03;17.40;99.90
41928;DHT22;27616;51.420;6.788;2023-07-28T00:43:29;17.40;99.90
41928;DHT22;27616;51.420;6.788;2023-07-28T00:45:54;17.40;99.90
41928;DHT22;27616;51.420;6.788;2023-07-28T00:48:20;17.50;99.90
41928;DHT22;27616;51.420;6.788;2023-07-28T00:50:47;17.40;99.90
41928;DHT22;27616;51.420;6.788;2023-07-28T00:53:13;17.40;99.90
41928;DHT22;27616;51.420;6.788;2023-07-28T00:55:40;17.50;99.90
41928;DHT22;27616;51.420;6.788;2023-07-28T00:58:06;17.40;99.90
41928;DHT22;27616;51.420;6.788;2023-07-28T01:00:31;17.50;99.90
41928;DHT22;27616;51.420;6.788;2023-07-28T01:02:57;17.50;99.90
41928;DHT22;27616;51.420;6.788;2023-07-28T01:05:34;17.50;99.90
41928;DHT22;27616;51.420;6.788;2023-07-28T01:08:06;17.50;99.90
41928;DHT22;27616;51.420;6.788;2023-07-28T01:10:36;17.50;99.90
41928;DHT22;27616;51.420;6.788;2023-07-28T01:13:04;17.50;99.90
41928;DHT22;27616;51.420;6.788;2023-07-28T01:15:29;17.50;99.90
41928;DHT22;27616;51.420;6.788;2023-07-28T01:17:55;17.50;99.90
41928;DHT22;27616;51.420;6.788;2023-07-28T01:20:23;17.50;99.90
41928;DHT22;27616;51.420;6.788;2023-07-28T01:23:19;17.50;99.90
41928;DHT22;27616;51.420;6.788;2023-07-28T01:28:23;17.60;99.90
41928;DHT22;27616;51.420;6.788;2023-07-28T01:30:49;17.50;99.90
41928;DHT22;27616;51.420;6.788;2023-07-28T01:33:15;17.60;99.90
41928;DHT22;27616;51.420;6.788;2023-07-28T01:35:40;17.50;99.90
41928;DHT22;27616;51.420;6.788;2023-07-28T01:38:06;17.50;99.90
41928;DHT22;27616;51.420;6.788;2023-07-28T01:40:32;17.60;99.90
41928;DHT22;27616;51.420;6.788;2023-07-28T01:42:58;17.60;99.90
41928;DHT22;27616;51.420;6.788;2023-07-28T01:45:23;17.50;99.90
41928;DHT22;27616;51.420;6.788;2023-07-28T01:47:49;17.50;99.90
41928;DHT22;27616;51.420;6.788;2023-07-28T01:50:15;17.50;99.90
41928;DHT22;27616;51.420;6.788;2023-07-28T01:52:40;17.50;99.90
41928;DHT22;27616;51.420;6.788;2023-07-28T01:55:06;17.50;99.90
41928;DHT22;27616;51.420;6.788;2023-07-28T01:57:33;17.50;99.90
41928;DHT22;27616;51.420;6.788;2023-07-28T01:59:59;17.50;99.90
41928;DHT22;27616;51.420;6.788;2023-07-28T02:02:25;17.50;99.90
41928;DHT22;27616;51.420;6.788;2023-07-28T02:04:50;17.50;99.90
41928;DHT22;27616;51.420;6.788;2023-07-28T02:07:16;17.50;99.90
41928;DHT22;27616;51.420;6.788;2023-07-28T02:09:42;17.50;99.90
41928;DHT22;27616;51.420;6.788;2023-07-28T02:12:08;17.50;99.90
41928;DHT22;27616;51.420;6.788;2023-07-28T02:14:34;17.50;99.90
41928;DHT22;27616;51.420;6.788;2023-07-28T02:16:59;17.50;99.90
41928;DHT22;27616;51.420;6.788;2023-07-28T02:19:25;17.50;99.90
41928;DHT22;27616;51.420;6.788;2023-07-28T02:21:51;17.50;99.90
41928;DHT22;27616;51.420;6.788;2023-07-28T02:24:16;17.50;99.90
41928;DHT22;27616;51.420;6.788;2023-07-28T02:26:42;17.40;99.90
41928;DHT22;27616;51.420;6.788;2023-07-28T02:29:07;17.50;99.90
41928;DHT22;27616;51.420;6.788;2023-07-28T02:31:33;17.50;99.90
41928;DHT22;27616;51.420;6.788;2023-07-28T02:33:59;17.50;99.90
41928;DHT22;27616;51.420;6.788;2023-07-28T02:36:24;17.50;99.90
41928;DHT22;27616;51.420;6.788;2023-07-28T02:38:50;17.50;99.90
41928;DHT22;27616;51.420;6.788;2023-07-28T02:41:16;17.50;99.90
41928;DHT22;27616;51.420;6.788;2023-07-28T02:43:41;17.50;99.90
41928;DHT22;27616;51.420;6.788;2023-07-28T02:46:07;17.50;99.90
41928;DHT22;27616;51.420;6.788;2023-07-28T02:48:32;17.50;99.90
41928;DHT22;27616;51.420;6.788;2023-07-28T02:50:58;17.50;99.90
41928;DHT22;27616;51.420;6.788;2023-07-28T02:53:24;17.50;99.90
41928;DHT22;27616;51.420;6.788;2023-07-28T02:55:49;17.50;99.90
41928;DHT22;27616;51.420;6.788;2023-07-28T02:58:16;17.50;99.90
41928;DHT22;27616;51.420;6.788;2023-07-28T03:00:43;17.50;99.90
41928;DHT22;27616;51.420;6.788;2023-07-28T03:03:10;17.50;99.90
41928;DHT22;27616;51.420;6.788;2023-07-28T03:05:36;17.50;99.90
41928;DHT22;27616;51.420;6.788;2023-07-28T03:08:13;17.60;99.90
41928;DHT22;27616;51.420;6.788;2023-07-28T03:10:39;17.60;99.90
41928;DHT22;27616;51.420;6.788;2023-07-28T03:13:04;17.60;99.90
41928;DHT22;27616;51.420;6.788;2023-07-28T03:15:30;17.60;99.90
41928;DHT22;27616;51.420;6.788;2023-07-28T03:17:56;17.60;99.90
41928;DHT22;27616;51.420;6.788;2023-07-28T03:20:22;17.60;99.90
41928;DHT22;27616;51.420;6.788;2023-07-28T03:22:47;17.50;99.90
41928;DHT22;27616;51.420;6.788;2023-07-28T03:25:13;17.50;99.90
41928;DHT22;27616;51.420;6.788;2023-07-28T03:27:39;17.50;99.90
41928;DHT22;27616;51.420;6.788;2023-07-28T03:30:05;17.40;99.90
41928;DHT22;27616;51.420;6.788;2023-07-28T03:32:32;17.50;99.90
41928;DHT22;27616;51.420;6.788;2023-07-28T03:34:58;17.50;99.90
41928;DHT22;27616;51.420;6.788;2023-07-28T03:37:24;17.40;99.90
41928;DHT22;27616;51.420;6.788;2023-07-28T03:39:50;17.50;99.90
41928;DHT22;27616;51.420;6.788;2023-07-28T03:42:17;17.40;99.90
41928;DHT22;27616;51.420;6.788;2023-07-28T03:44:42;17.40;99.90
41928;DHT22;27616;51.420;6.788;2023-07-28T03:47:08;17.40;99.90
41928;DHT22;27616;51.420;6.788;2023-07-28T03:49:34;17.40;99.90
41928;DHT22;27616;51.420;6.788;2023-07-28T03:52:00;17.40;99.90
41928;DHT22;27616;51.420;6.788;2023-07-28T03:54:25;17.40;99.90
41928;DHT22;27616;51.420;6.788;2023-07-28T03:56:51;17.40;99.90
41928;DHT22;27616;51.420;6.788;2023-07-28T03:59:19;17.40;99.90
41928;DHT22;27616;51.420;6.788;2023-07-28T04:01:45;17.40;99.90
41928;DHT22;27616;51.420;6.788;2023-07-28T04:04:10;17.40;99.90
41928;DHT22;27616;51.420;6.788;2023-07-28T04:06:41;17.50;99.90
41928;DHT22;27616;51.420;6.788;2023-07-28T04:09:07;17.40;99.90
41928;DHT22;27616;51.420;6.788;2023-07-28T04:11:33;17.40;99.90
41928;DHT22;27616;51.420;6.788;2023-07-28T04:13:59;17.40;99.90
41928;DHT22;27616;51.420;6.788;2023-07-28T04:16:25;17.40;99.90
41928;DHT22;27616;51.420;6.788;2023-07-28T04:18:51;17.40;99.90
41928;DHT22;27616;51.420;6.788;2023-07-28T04:21:16;17.40;99.90
41928;DHT22;27616;51.420;6.788;2023-07-28T04:23:42;17.40;99.90
41928;DHT22;27616;51.420;6.788;2023-07-28T04:26:09;17.40;99.90
41928;DHT22;27616;51.420;6.788;2023-07-28T04:28:35;17.40;99.90
41928;DHT22;27616;51.420;6.788;2023-07-28T04:31:02;17.40;99.90
41928;DHT22;27616;51.420;6.788;2023-07-28T04:33:51;17.40;99.90
41928;DHT22;27616;51.420;6.788;2023-07-28T04:36:17;17.40;99.90
41928;DHT22;27616;51.420;6.788;2023-07-28T04:38:42;17.50;99.90
41928;DHT22;27616;51.420;6.788;2023-07-28T04:41:08;17.40;99.90
41928;DHT22;27616;51.420;6.788;2023-07-28T04:43:46;17.50;99.90
41928;DHT22;27616;51.420;6.788;2023-07-28T04:46:12;17.50;99.90
41928;DHT22;27616;51.420;6.788;2023-07-28T04:48:39;17.50;99.90
41928;DHT22;27616;51.420;6.788;2023-07-28T04:51:24;17.60;99.90
41928;DHT22;27616;51.420;6.788;2023-07-28T04:54:12;17.60;99.90
41928;DHT22;27616;51.420;6.788;2023-07-28T04:56:37;17.60;99.90
41928;DHT22;27616;51.420;6.788;2023-07-28T04:59:03;17.60;99.90
41928;DHT22;27616;51.420;6.788;2023-07-28T05:01:30;17.60;99.90
41928;DHT22;27616;51.420;6.788;2023-07-28T05:03:55;17.60;99.90
41928;DHT22;27616;51.420;6.788;2023-07-28T05:06:25;17.60;99.90
41928;DHT22;27616;51.420;6.788;2023-07-28T05:08:51;17.60;99.90
41928;DHT22;27616;51.420;6.788;2023-07-28T05:11:24;17.70;99.90
41928;DHT22;27616;51.420;6.788;2023-07-28T05:13:51;17.70;99.90
41928;DHT22;27616;51.420;6.788;2023-07-28T05:16:16;17.70;99.90
41928;DHT22;27616;51.420;6.788;2023-07-28T05:19:08;17.70;99.90
41928;DHT22;27616;51.420;6.788;2023-07-28T05:21:42;17.70;99.90
41928;DHT22;27616;51.420;6.788;2023-07-28T05:24:11;17.70;99.90
41928;DHT22;27616;51.420;6.788;2023-07-28T05:26:37;17.80;99.90
41928;DHT22;27616;51.420;6.788;2023-07-28T05:29:03;17.70;99.90
41928;DHT22;27616;51.420;6.788;2023-07-28T05:31:28;17.80;99.90
41928;DHT22;27616;51.420;6.788;2023-07-28T05:33:54;17.80;99.90
41928;DHT22;27616;51.420;6.788;2023-07-28T05:36:20;17.80;99.90
41928;DHT22;27616;51.420;6.788;2023-07-28T05:38:48;17.80;99.90
41928;DHT22;27616;51.420;6.788;2023-07-28T05:41:15;17.80;99.90
41928;DHT22;27616;51.420;6.788;2023-07-28T05:43:43;17.80;99.90
41928;DHT22;27616;51.420;6.788;2023-07-28T05:46:09;17.90;99.90
41928;DHT22;27616;51.420;6.788;2023-07-28T05:48:36;17.90;99.90
41928;DHT22;27616;51.420;6.788;2023-07-28T05:51:01;18.00;99.90
41928;DHT22;27616;51.420;6.788;2023-07-28T05:53:27;18.00;99.90
41928;DHT22;27616;51.420;6.788;2023-07-28T05:55:58;17.90;99.90
41928;DHT22;27616;51.420;6.788;2023-07-28T05:58:27;18.00;99.90
41928;DHT22;27616;51.420;6.788;2023-07-28T06:00:52;18.00;99.90
41928;DHT22;27616;51.420;6.788;2023-07-28T06:03:38;17.90;99.90
41928;DHT22;27616;51.420;6.788;2023-07-28T06:06:13;17.90;99.90
41928;DHT22;27616;51.420;6.788;2023-07-28T06:08:38;18.00;99.90
41928;DHT22;27616;51.420;6.788;2023-07-28T06:11:05;18.00;99.90
41928;DHT22;27616;51.420;6.788;2023-07-28T06:13:31;18.10;99.90
41928;DHT22;27616;51.420;6.788;2023-07-28T06:15:57;18.10;99.90
41928;DHT22;27616;51.420;6.788;2023-07-28T06:18:24;18.10;99.90
41928;DHT22;27616;51.420;6.788;2023-07-28T06:20:59;18.10;99.90
41928;DHT22;27616;51.420;6.788;2023-07-28T06:23:24;18.10;99.90
41928;DHT22;27616;51.420;6.788;2023-07-28T06:25:51;18.10;99.90
41928;DHT22;27616;51.420;6.788;2023-07-28T06:28:17;18.00;99.90
41928;DHT22;27616;51.420;6.788;2023-07-28T06:30:42;18.00;99.90
41928;DHT22;27616;51.420;6.788;2023-07-28T06:33:09;18.00;99.90
41928;DHT22;27616;51.420;6.788;2023-07-28T06:35:34;18.00;99.90
41928;DHT22;27616;51.420;6.788;2023-07-28T06:38:01;18.00;99.90
41928;DHT22;27616;51.420;6.788;2023-07-28T06:40:28;18.10;99.90
41928;DHT22;27616;51.420;6.788;2023-07-28T06:42:53;18.10;99.90
41928;DHT22;27616;51.420;6.788;2023-07-28T06:45:19;18.20;99.90
41928;DHT22;27616;51.420;6.788;2023-07-28T06:47:45;18.30;99.90
41928;DHT22;27616;51.420;6.788;2023-07-28T06:50:11;18.30;99.90
41928;DHT22;27616;51.420;6.788;2023-07-28T06:52:38;18.40;99.90
41928;DHT22;27616;51.420;6.788;2023-07-28T06:55:04;18.40;99.90
41928;DHT22;27616;51.420;6.788;2023-07-28T06:57:30;18.50;99.90
41928;DHT22;27616;51.420;6.788;2023-07-28T07:00:00;18.60;99.90
41928;DHT22;27616;51.420;6.788;2023-07-28T07:02:26;18.60;99.90
41928;DHT22;27616;51.420;6.788;2023-07-28T07:04:52;18.60;99.90
41928;DHT22;27616;51.420;6.788;2023-07-28T07:07:17;18.70;99.90
41928;DHT22;27616;51.420;6.788;2023-07-28T07:09:43;18.70;99.90
41928;DHT22;27616;51.420;6.788;2023-07-28T07:12:09;18.70;99.90
41928;DHT22;27616;51.420;6.788;2023-07-28T07:14:35;18.80;99.90
41928;DHT22;27616;51.420;6.788;2023-07-28T07:17:00;18.80;99.90
41928;DHT22;27616;51.420;6.788;2023-07-28T07:19:29;18.90;99.90
41928;DHT22;27616;51.420;6.788;2023-07-28T07:21:55;18.90;99.90
41928;DHT22;27616;51.420;6.788;2023-07-28T07:24:22;19.00;99.90
41928;DHT22;27616;51.420;6.788;2023-07-28T07:26:47;19.00;99.90
41928;DHT22;27616;51.420;6.788;2023-07-28T07:29:13;19.00;99.90
41928;DHT22;27616;51.420;6.788;2023-07-28T07:31:39;19.00;99.90
41928;DHT22;27616;51.420;6.788;2023-07-28T07:34:05;19.00;99.90
41928;DHT22;27616;51.420;6.788;2023-07-28T07:36:31;19.00;99.90
41928;DHT22;27616;51.420;6.788;2023-07-28T07:38:56;19.00;99.90
41928;DHT22;27616;51.420;6.788;2023-07-28T07:41:22;19.00;99.90
41928;DHT22;27616;51.420;6.788;2023-07-28T07:43:49;19.00;99.90
41928;DHT22;27616;51.420;6.788;2023-07-28T07:46:16;19.00;99.90
41928;DHT22;27616;51.420;6.788;2023-07-28T07:48:42;18.90;99.90
41928;DHT22;27616;51.420;6.788;2023-07-28T07:51:08;18.90;99.90
41928;DHT22;27616;51.420;6.788;2023-07-28T07:53:34;18.90;99.90
41928;DHT22;27616;51.420;6.788;2023-07-28T07:56:06;18.90;99.90
41928;DHT22;27616;51.420;6.788;2023-07-28T07:58:32;18.90;99.90
41928;DHT22;27616;51.420;6.788;2023-07-28T08:00:58;19.00;99.90
41928;DHT22;27616;51.420;6.788;2023-07-28T08:03:24;19.00;99.90
41928;DHT22;27616;51.420;6.788;2023-07-28T08:05:53;19.10;99.90
41928;DHT22;27616;51.420;6.788;2023-07-28T08:08:19;19.10;99.90
41928;DHT22;27616;51.420;6.788;2023-07-28T08:10:47;19.10;99.90
41928;DHT22;27616;51.420;6.788;2023-07-28T08:13:14;19.20;99.90
41928;DHT22;27616;51.420;6.788;2023-07-28T08:15:40;19.30;99.90
41928;DHT22;27616;51.420;6.788;2023-07-28T08:18:05;19.30;99.90
41928;DHT22;27616;51.420;6.788;2023-07-28T08:20:31;19.40;99.90
41928;DHT22;27616;51.420;6.788;2023-07-28T08:22:56;19.40;99.90
41928;DHT22;27616;51.420;6.788;2023-07-28T08:25:22;19.60;99.90
41928;DHT22;27616;51.420;6.788;2023-07-28T08:27:49;19.70;99.90
41928;DHT22;27616;51.420;6.788;2023-07-28T08:30:15;19.80;99.90
41928;DHT22;27616;51.420;6.788;2023-07-28T08:32:41;19.80;99.90
41928;DHT22;27616;51.420;6.788;2023-07-28T08:35:09;19.70;99.90
41928;DHT22;27616;51.420;6.788;2023-07-28T08:37:35;19.70;99.90
41928;DHT22;27616;51.420;6.788;2023-07-28T08:40:00;19.60;99.90
41928;DHT22;27616;51.420;6.788;2023-07-28T08:42:29;19.50;99.90
41928;DHT22;27616;51.420;6.788;2023-07-28T08:44:55;19.50;99.90
41928;DHT22;27616;51.420;6.788;2023-07-28T08:47:21;19.40;99.90
41928;DHT22;27616;51.420;6.788;2023-07-28T08:49:47;19.40;99.90
41928;DHT22;27616;51.420;6.788;2023-07-28T08:52:16;19.40;99.90
41928;DHT22;27616;51.420;6.788;2023-07-28T08:54:42;19.40;99.90
41928;DHT22;27616;51.420;6.788;2023-07-28T08:57:09;19.40;99.90
41928;DHT22;27616;51.420;6.788;2023-07-28T08:59:35;19.50;99.90
41928;DHT22;27616;51.420;6.788;2023-07-28T09:02:01;19.50;99.90
41928;DHT22;27616;51.420;6.788;2023-07-28T09:04:27;19.50;99.90
41928;DHT22;27616;51.420;6.788;2023-07-28T09:06:53;19.50;99.90
41928;DHT22;27616;51.420;6.788;2023-07-28T09:09:21;19.60;99.90
41928;DHT22;27616;51.420;6.788;2023-07-28T09:11:52;19.60;99.90
41928;DHT22;27616;51.420;6.788;2023-07-28T09:14:20;19.60;99.90
41928;DHT22;27616;51.420;6.788;2023-07-28T09:16:47;19.80;99.90
41928;DHT22;27616;51.420;6.788;2023-07-28T09:19:13;19.90;99.90
41928;DHT22;27616;51.420;6.788;2023-07-28T09:21:43;20.00;99.90
41928;DHT22;27616;51.420;6.788;2023-07-28T09:24:10;20.00;99.90
41928;DHT22;27616;51.420;6.788;2023-07-28T09:26:46;20.00;99.90
41928;DHT22;27616;51.420;6.788;2023-07-28T09:29:17;20.10;99.90
41928;DHT22;27616;51.420;6.788;2023-07-28T09:31:47;20.30;99.90
41928;DHT22;27616;51.420;6.788;2023-07-28T09:34:25;20.50;99.90
41928;DHT22;27616;51.420;6.788;2023-07-28T09:36:53;20.70;99.90
41928;DHT22;27616;51.420;6.788;2023-07-28T09:39:19;20.60;99.90
41928;DHT22;27616;51.420;6.788;2023-07-28T09:41:46;20.70;99.90
41928;DHT22;27616;51.420;6.788;2023-07-28T09:44:12;20.70;99.90
41928;DHT22;27616;51.420;6.788;2023-07-28T09:46:51;20.70;99.90
41928;DHT22;27616;51.420;6.788;2023-07-28T09:49:28;20.70;99.90
41928;DHT22;27616;51.420;6.788;2023-07-28T09:51:55;20.70;99.90
41928;DHT22;27616;51.420;6.788;2023-07-28T09:54:28;20.90;99.90
41928;DHT22;27616;51.420;6.788;2023-07-28T09:56:58;20.90;99.90
41928;DHT22;27616;51.420;6.788;2023-07-28T09:59:29;20.90;99.90
41928;DHT22;27616;51.420;6.788;2023-07-28T10:01:58;20.60;99.90
41928;DHT22;27616;51.420;6.788;2023-07-28T10:04:24;20.50;99.90
41928;DHT22;27616;51.420;6.788;2023-07-28T10:06:51;20.50;99.90
41928;DHT22;27616;51.420;6.788;2023-07-28T10:09:25;20.40;99.90
41928;DHT22;27616;51.420;6.788;2023-07-28T10:11:52;20.40;99.90
41928;DHT22;27616;51.420;6.788;2023-07-28T10:14:37;20.50;99.90
41928;DHT22;27616;51.420;6.788;2023-07-28T10:17:05;20.50;99.90
41928;DHT22;27616;51.420;6.788;2023-07-28T10:19:35;20.50;99.90
41928;DHT22;27616;51.420;6.788;2023-07-28T10:22:02;20.60;99.90
41928;DHT22;27616;51.420;6.788;2023-07-28T10:24:54;20.60;99.90
41928;DHT22;27616;51.420;6.788;2023-07-28T10:27:44;20.60;99.90
41928;DHT22;27616;51.420;6.788;2023-07-28T10:30:12;20.60;99.90
41928;DHT22;27616;51.420;6.788;2023-07-28T10:32:43;20.60;99.90
41928;DHT22;27616;51.420;6.788;2023-07-28T10:37:38;20.80;99.90
41928;DHT22;27616;51.420;6.788;2023-07-28T10:40:33;20.80;99.90
41928;DHT22;27616;51.420;6.788;2023-07-28T10:43:01;20.90;99.90
41928;DHT22;27616;51.420;6.788;2023-07-28T10:45:28;21.10;99.90
41928;DHT22;27616;51.420;6.788;2023-07-28T10:47:56;21.20;99.90
41928;DHT22;27616;51.420;6.788;2023-07-28T10:50:22;21.30;99.90
41928;DHT22;27616;51.420;6.788;2023-07-28T10:52:48;21.40;99.90
41928;DHT22;27616;51.420;6.788;2023-07-28T10:55:27;21.50;99.90
41928;DHT22;27616;51.420;6.788;2023-07-28T10:57:53;21.60;99.90
41928;DHT22;27616;51.420;6.788;2023-07-28T11:00:21;21.70;99.90
41928;DHT22;27616;51.420;6.788;2023-07-28T11:02:49;21.70;99.90
41928;DHT22;27616;51.420;6.788;2023-07-28T11:05:29;21.80;99.90
41928;DHT22;27616;51.420;6.788;2023-07-28T11:08:00;21.90;99.90
41928;DHT22;27616;51.420;6.788;2023-07-28T11:10:30;22.00;99.90
41928;DHT22;27616;51.420;6.788;2023-07-28T11:12:58;21.90;99.90
41928;DHT22;27616;51.420;6.788;2023-07-28T11:15:25;21.90;99.90
41928;DHT22;27616;51.420;6.788;2023-07-28T11:17:51;21.80;99.90
41928;DHT22;27616;51.420;6.788;2023-07-28T11:20:18;21.80;99.90
41928;DHT22;27616;51.420;6.788;2023-07-28T11:22:46;21.70;99.90
41928;DHT22;27616;51.420;6.788;2023-07-28T11:25:12;21.70;99.90
41928;DHT22;27616;51.420;6.788;2023-07-28T11:27:39;21.70;99.90
41928;DHT22;27616;51.420;6.788;2023-07-28T11:30:07;21.60;99.90
41928;DHT22;27616;51.420;6.788;2023-07-28T11:32:36;21.60;99.90
41928;DHT22;27616;51.420;6.788;2023-07-28T11:35:10;21.50;99.90
41928;DHT22;27616;51.420;6.788;2023-07-28T11:37:36;21.20;99.90
41928;DHT22;27616;51.420;6.788;2023-07-28T11:40:04;21.10;99.90
41928;DHT22;27616;51.420;6.788;2023-07-28T11:42:39;21.00;99.90
41928;DHT22;27616;51.420;6.788;2023-07-28T11:45:07;21.10;99.90
41928;DHT22;27616;51.420;6.788;2023-07-28T11:47:33;21.20;99.90
41928;DHT22;27616;51.420;6.788;2023-07-28T11:49:58;21.30;99.90
41928;DHT22;27616;51.420;6.788;2023-07-28T11:52:36;21.40;99.90
41928;DHT22;27616;51.420;6.788;2023-07-28T11:55:04;21.60;99.90
41928;DHT22;27616;51.420;6.788;2023-07-28T11:57:30;21.80;99.90
41928;DHT22;27616;51.420;6.788;2023-07-28T11:59:57;21.80;99.90
41928;DHT22;27616;51.420;6.788;2023-07-28T12:02:31;22.10;99.90
41928;DHT22;27616;51.420;6.788;2023-07-28T12:04:59;22.50;99.90
41928;DHT22;27616;51.420;6.788;2023-07-28T12:07:32;22.60;99.90
41928;DHT22;27616;51.420;6.788;2023-07-28T12:10:03;22.70;99.90
41928;DHT22;27616;51.420;6.788;2023-07-28T12:12:39;22.70;99.90
41928;DHT22;27616;51.420;6.788;2023-07-28T12:15:26;22.60;99.90
41928;DHT22;27616;51.420;6.788;2023-07-28T12:18:11;22.60;99.90
41928;DHT22;27616;51.420;6.788;2023-07-28T12:23:04;23.00;99.90
41928;DHT22;27616;51.420;6.788;2023-07-28T12:25:31;23.20;99.90
41928;DHT22;27616;51.420;6.788;2023-07-28T12:27:57;23.20;99.90
41928;DHT22;27616;51.420;6.788;2023-07-28T12:30:23;23.30;99.90
41928;DHT22;27616;51.420;6.788;2023-07-28T12:32:48;23.40;99.90
41928;DHT22;27616;51.420;6.788;2023-07-28T12:35:14;23.50;99.90
41928;DHT22;27616;51.420;6.788;2023-07-28T12:37:40;23.50;99.90
41928;DHT22;27616;51.420;6.788;2023-07-28T12:40:07;23.60;99.90
41928;DHT22;27616;51.420;6.788;2023-07-28T12:42:34;23.70;99.90
41928;DHT22;27616;51.420;6.788;2023-07-28T12:44:59;23.70;99.90
41928;DHT22;27616;51.420;6.788;2023-07-28T12:47:25;23.60;99.90
41928;DHT22;27616;51.420;6.788;2023-07-28T12:49:51;23.50;99.90
41928;DHT22;27616;51.420;6.788;2023-07-28T12:52:16;23.60;99.90
41928;DHT22;27616;51.420;6.788;2023-07-28T12:54:42;23.60;99.90
41928;DHT22;27616;51.420;6.788;2023-07-28T12:57:09;23.80;99.90
41928;DHT22;27616;51.420;6.788;2023-07-28T12:59:36;23.90;99.90
41928;DHT22;27616;51.420;6.788;2023-07-28T13:02:02;23.90;99.90
41928;DHT22;27616;51.420;6.788;2023-07-28T13:04:28;23.90;99.90
41928;DHT22;27616;51.420;6.788;2023-07-28T13:06:54;23.90;99.90
41928;DHT22;27616;51.420;6.788;2023-07-28T13:09:20;23.80;99.90
41928;DHT22;27616;51.420;6.788;2023-07-28T13:11:46;23.80;99.90
41928;DHT22;27616;51.420;6.788;2023-07-28T13:14:11;23.70;99.90
41928;DHT22;27616;51.420;6.788;2023-07-28T13:16:37;23.70;99.90
41928;DHT22;27616;51.420;6.788;2023-07-28T13:19:04;23.60;99.90
41928;DHT22;27616;51.420;6.788;2023-07-28T13:21:30;23.70;99.90
41928;DHT22;27616;51.420;6.788;2023-07-28T13:23:55;23.60;99.90
41928;DHT22;27616;51.420;6.788;2023-07-28T13:26:21;23.70;99.90
41928;DHT22;27616;51.420;6.788;2023-07-28T13:28:46;23.80;99.90
41928;DHT22;27616;51.420;6.788;2023-07-28T13:31:15;23.60;99.90
41928;DHT22;27616;51.420;6.788;2023-07-28T13:33:41;23.50;99.90
41928;DHT22;27616;51.420;6.788;2023-07-28T13:36:06;23.60;99.90
41928;DHT22;27616;51.420;6.788;2023-07-28T13:38:33;23.50;99.90
41928;DHT22;27616;51.420;6.788;2023-07-28T13:40:59;23.50;99.90
41928;DHT22;27616;51.420;6.788;2023-07-28T13:43:25;23.50;99.90
41928;DHT22;27616;51.420;6.788;2023-07-28T13:45:51;23.50;99.90
41928;DHT22;27616;51.420;6.788;2023-07-28T13:48:16;23.50;99.90
41928;DHT22;27616;51.420;6.788;2023-07-28T13:50:42;23.60;99.90
41928;DHT22;27616;51.420;6.788;2023-07-28T13:53:08;23.60;99.90
41928;DHT22;27616;51.420;6.788;2023-07-28T13:55:33;23.50;99.90
41928;DHT22;27616;51.420;6.788;2023-07-28T13:57:59;23.60;99.90
41928;DHT22;27616;51.420;6.788;2023-07-28T14:00:25;23.80;99.90
41928;DHT22;27616;51.420;6.788;2023-07-28T14:02:50;23.90;99.90
41928;DHT22;27616;51.420;6.788;2023-07-28T14:05:16;23.90;99.90
41928;DHT22;27616;51.420;6.788;2023-07-28T14:07:42;23.90;99.90
41928;DHT22;27616;51.420;6.788;2023-07-28T14:10:08;24.00;99.90
41928;DHT22;27616;51.420;6.788;2023-07-28T14:12:34;24.00;99.90
41928;DHT22;27616;51.420;6.788;2023-07-28T14:14:59;24.10;99.90
41928;DHT22;27616;51.420;6.788;2023-07-28T14:17:25;23.90;99.90
41928;DHT22;27616;51.420;6.788;2023-07-28T14:19:50;23.80;99.90
41928;DHT22;27616;51.420;6.788;2023-07-28T14:22:17;23.80;99.90
41928;DHT22;27616;51.420;6.788;2023-07-28T14:24:43;23.80;99.90
41928;DHT22;27616;51.420;6.788;2023-07-28T14:27:08;23.70;99.90
41928;DHT22;27616;51.420;6.788;2023-07-28T14:29:34;23.60;99.90
41928;DHT22;27616;51.420;6.788;2023-07-28T14:32:00;23.60;99.90
41928;DHT22;27616;51.420;6.788;2023-07-28T14:34:25;23.40;99.90
41928;DHT22;27616;51.420;6.788;2023-07-28T14:36:51;23.30;99.90
41928;DHT22;27616;51.420;6.788;2023-07-28T14:39:17;23.30;99.90
41928;DHT22;27616;51.420;6.788;2023-07-28T14:41:43;23.20;99.90
41928;DHT22;27616;51.420;6.788;2023-07-28T14:44:08;23.20;99.90
41928;DHT22;27616;51.420;6.788;2023-07-28T14:46:34;23.10;99.90
41928;DHT22;27616;51.420;6.788;2023-07-28T14:49:00;23.10;99.90
41928;DHT22;27616;51.420;6.788;2023-07-28T14:51:25;23.10;99.90
41928;DHT22;27616;51.420;6.788;2023-07-28T14:53:51;23.10;99.90
41928;DHT22;27616;51.420;6.788;2023-07-28T14:56:17;23.10;99.90
41928;DHT22;27616;51.420;6.788;2023-07-28T14:58:43;23.10;99.90
41928;DHT22;27616;51.420;6.788;2023-07-28T15:01:12;23.00;99.90
41928;DHT22;27616;51.420;6.788;2023-07-28T15:03:38;22.90;99.90
41928;DHT22;27616;51.420;6.788;2023-07-28T15:06:04;22.80;99.90
41928;DHT22;27616;51.420;6.788;2023-07-28T15:08:30;22.70;99.90
41928;DHT22;27616;51.420;6.788;2023-07-28T15:10:57;22.70;99.90
41928;DHT22;27616;51.420;6.788;2023-07-28T15:13:22;22.70;99.90
41928;DHT22;27616;51.420;6.788;2023-07-28T15:15:48;22.70;99.90
41928;DHT22;27616;51.420;6.788;2023-07-28T15:18:14;22.60;99.90
41928;DHT22;27616;51.420;6.788;2023-07-28T15:20:41;22.60;99.90
41928;DHT22;27616;51.420;6.788;2023-07-28T15:23:08;22.60;99.90
41928;DHT22;27616;51.420;6.788;2023-07-28T15:25:34;22.50;99.90
41928;DHT22;27616;51.420;6.788;2023-07-28T15:28:00;22.50;99.90
41928;DHT22;27616;51.420;6.788;2023-07-28T15:30:25;22.50;99.90
41928;DHT22;27616;51.420;6.788;2023-07-28T15:32:51;22.40;99.90
41928;DHT22;27616;51.420;6.788;2023-07-28T15:35:17;22.50;99.90
41928;DHT22;27616;51.420;6.788;2023-07-28T15:37:43;22.40;99.90
41928;DHT22;27616;51.420;6.788;2023-07-28T15:40:09;22.40;99.90